sensor_id;sensor_type;location;lat;lon;timestamp;temperature;humidity
12111;DHT22;6119;52.372;8.990;2022-09-09T00:00:27;17.00;99.90
12111;DHT22;6119;52.372;8.990;2022-09-09T00:03:19;17.00;99.90
12111;DHT22;6119;52.372;8.990;2022-09-09T00:06:13;16.90;99.90
12111;DHT22;6119;52.372;8.990;2022-09-09T00:09:10;16.90;99.90
12111;DHT22;6119;52.372;8.990;2022-09-09T00:12:02;16.90;99.90
12111;DHT22;6119;52.372;8.990;2022-09-09T00:14:53;16.90;99.90
12111;DHT22;6119;52.372;8.990;2022-09-09T00:17:46;16.80;99.90
12111;DHT22;6119;52.372;8.990;2022-09-09T00:20:38;15.80;99.90
12111;DHT22;6119;52.372;8.990;2022-09-09T00:23:29;16.80;99.90
12111;DHT22;6119;52.372;8.990;2022-09-09T00:26:20;16.90;99.90
12111;DHT22;6119;52.372;8.990;2022-09-09T00:29:14;16.90;99.90
12111;DHT22;6119;52.372;8.990;2022-09-09T00:32:12;16.80;99.90
12111;DHT22;6119;52.372;8.990;2022-09-09T00:35:02;16.80;99.90
12111;DHT22;6119;52.372;8.990;2022-09-09T00:37:54;16.80;99.90
12111;DHT22;6119;52.372;8.990;2022-09-09T00:40:49;16.70;99.90
12111;DHT22;6119;52.372;8.990;2022-09-09T00:43:37;16.70;99.90
12111;DHT22;6119;52.372;8.990;2022-09-09T00:46:51;16.70;99.90
12111;DHT22;6119;52.372;8.990;2022-09-09T00:49:48;16.70;99.90
12111;DHT22;6119;52.372;8.990;2022-09-09T00:52:42;16.70;99.90
12111;DHT22;6119;52.372;8.990;2022-09-09T00:55:41;16.60;99.90
12111;DHT22;6119;52.372;8.990;2022-09-09T00:58:30;16.60;99.90
12111;DHT22;6119;52.372;8.990;2022-09-09T01:01:17;16.60;99.90
12111;DHT22;6119;52.372;8.990;2022-09-09T01:04:07;16.60;99.90
12111;DHT22;6119;52.372;8.990;2022-09-09T01:07:00;16.60;99.90
12111;DHT22;6119;52.372;8.990;2022-09-09T01:09:56;16.60;99.90
12111;DHT22;6119;52.372;8.990;2022-09-09T01:12:47;16.60;99.90
12111;DHT22;6119;52.372;8.990;2022-09-09T01:15:35;16.50;99.90
12111;DHT22;6119;52.372;8.990;2022-09-09T01:18:27;16.50;99.90
12111;DHT22;6119;52.372;8.990;2022-09-09T01:21:20;16.50;99.90
12111;DHT22;6119;52.372;8.990;2022-09-09T01:24:18;16.50;99.90
12111;DHT22;6119;52.372;8.990;2022-09-09T01:27:06;16.50;99.90
12111;DHT22;6119;52.372;8.990;2022-09-09T01:29:54;16.50;99.90
12111;DHT22;6119;52.372;8.990;2022-09-09T01:32:43;16.40;99.90
12111;DHT22;6119;52.372;8.990;2022-09-09T01:35:37;16.40;99.90
12111;DHT22;6119;52.372;8.990;2022-09-09T01:38:26;16.40;99.90
12111;DHT22;6119;52.372;8.990;2022-09-09T01:41:14;16.40;99.90
12111;DHT22;6119;52.372;8.990;2022-09-09T01:44:02;16.40;99.90
12111;DHT22;6119;52.372;8.990;2022-09-09T01:46:49;16.30;99.90
12111;DHT22;6119;52.372;8.990;2022-09-09T01:49:36;16.30;99.90
12111;DHT22;6119;52.372;8.990;2022-09-09T01:52:23;16.30;99.90
12111;DHT22;6119;52.372;8.990;2022-09-09T01:55:10;16.20;99.90
12111;DHT22;6119;52.372;8.990;2022-09-09T01:58:17;16.30;99.90
12111;DHT22;6119;52.372;8.990;2022-09-09T02:01:13;16.30;99.90
12111;DHT22;6119;52.372;8.990;2022-09-09T02:04:11;16.30;99.90
12111;DHT22;6119;52.372;8.990;2022-09-09T02:07:01;16.20;99.90
12111;DHT22;6119;52.372;8.990;2022-09-09T02:09:52;16.20;99.90
12111;DHT22;6119;52.372;8.990;2022-09-09T02:12:46;16.10;99.90
12111;DHT22;6119;52.372;8.990;2022-09-09T02:15:35;16.10;99.90
12111;DHT22;6119;52.372;8.990;2022-09-09T02:18:28;16.10;99.90
12111;DHT22;6119;52.372;8.990;2022-09-09T02:21:17;16.20;99.90
12111;DHT22;6119;52.372;8.990;2022-09-09T02:24:06;16.20;99.90
12111;DHT22;6119;52.372;8.990;2022-09-09T02:26:56;16.30;99.90
12111;DHT22;6119;52.372;8.990;2022-09-09T02:29:44;16.30;99.90
12111;DHT22;6119;52.372;8.990;2022-09-09T02:32:34;16.40;99.90
12111;DHT22;6119;52.372;8.990;2022-09-09T02:35:24;16.50;99.90
12111;DHT22;6119;52.372;8.990;2022-09-09T02:38:13;16.50;99.90
12111;DHT22;6119;52.372;8.990;2022-09-09T02:41:01;16.50;99.90
12111;DHT22;6119;52.372;8.990;2022-09-09T02:43:49;16.50;99.90
12111;DHT22;6119;52.372;8.990;2022-09-09T02:46:44;16.50;99.90
12111;DHT22;6119;52.372;8.990;2022-09-09T02:49:41;16.60;99.90
12111;DHT22;6119;52.372;8.990;2022-09-09T02:52:38;16.60;99.90
12111;DHT22;6119;52.372;8.990;2022-09-09T02:55:37;16.70;99.90
12111;DHT22;6119;52.372;8.990;2022-09-09T02:58:24;16.70;99.90
12111;DHT22;6119;52.372;8.990;2022-09-09T03:01:11;16.70;99.90
12111;DHT22;6119;52.372;8.990;2022-09-09T03:03:59;16.80;99.90
12111;DHT22;6119;52.372;8.990;2022-09-09T03:06:46;16.80;99.90
12111;DHT22;6119;52.372;8.990;2022-09-09T03:09:34;16.80;99.90
12111;DHT22;6119;52.372;8.990;2022-09-09T03:12:20;16.80;99.90
12111;DHT22;6119;52.372;8.990;2022-09-09T03:15:08;16.80;99.90
12111;DHT22;6119;52.372;8.990;2022-09-09T03:17:55;16.80;99.90
12111;DHT22;6119;52.372;8.990;2022-09-09T03:20:42;16.90;99.90
12111;DHT22;6119;52.372;8.990;2022-09-09T03:23:28;16.90;99.90
12111;DHT22;6119;52.372;8.990;2022-09-09T03:26:17;16.90;99.90
12111;DHT22;6119;52.372;8.990;2022-09-09T03:29:04;16.90;99.90
12111;DHT22;6119;52.372;8.990;2022-09-09T03:31:51;16.80;99.90
12111;DHT22;6119;52.372;8.990;2022-09-09T03:34:38;16.70;99.90
12111;DHT22;6119;52.372;8.990;2022-09-09T03:37:25;16.80;99.90
12111;DHT22;6119;52.372;8.990;2022-09-09T03:40:12;16.70;99.90
12111;DHT22;6119;52.372;8.990;2022-09-09T03:43:00;16.70;99.90
12111;DHT22;6119;52.372;8.990;2022-09-09T03:45:47;16.80;99.90
12111;DHT22;6119;52.372;8.990;2022-09-09T03:48:34;16.80;99.90
12111;DHT22;6119;52.372;8.990;2022-09-09T03:51:21;16.80;99.90
12111;DHT22;6119;52.372;8.990;2022-09-09T03:54:08;16.80;99.90
12111;DHT22;6119;52.372;8.990;2022-09-09T03:56:55;16.90;99.90
12111;DHT22;6119;52.372;8.990;2022-09-09T03:59:43;16.90;99.90
12111;DHT22;6119;52.372;8.990;2022-09-09T04:02:29;16.80;99.90
12111;DHT22;6119;52.372;8.990;2022-09-09T04:05:16;16.90;99.90
12111;DHT22;6119;52.372;8.990;2022-09-09T04:08:03;16.90;99.90
12111;DHT22;6119;52.372;8.990;2022-09-09T04:10:49;16.80;99.90
12111;DHT22;6119;52.372;8.990;2022-09-09T04:13:37;16.80;99.90
12111;DHT22;6119;52.372;8.990;2022-09-09T04:16:25;16.80;99.90
12111;DHT22;6119;52.372;8.990;2022-09-09T04:19:12;16.80;99.90
12111;DHT22;6119;52.372;8.990;2022-09-09T04:21:59;16.70;99.90
12111;DHT22;6119;52.372;8.990;2022-09-09T04:24:46;16.80;99.90
12111;DHT22;6119;52.372;8.990;2022-09-09T04:27:33;16.80;99.90
12111;DHT22;6119;52.372;8.990;2022-09-09T04:30:20;16.70;99.90
12111;DHT22;6119;52.372;8.990;2022-09-09T04:33:08;16.70;99.90
12111;DHT22;6119;52.372;8.990;2022-09-09T04:35:55;16.70;99.90
12111;DHT22;6119;52.372;8.990;2022-09-09T04:38:42;16.70;99.90
12111;DHT22;6119;52.372;8.990;2022-09-09T04:41:29;16.70;99.90
12111;DHT22;6119;52.372;8.990;2022-09-09T04:44:16;16.70;99.90
12111;DHT22;6119;52.372;8.990;2022-09-09T04:47:03;16.70;99.90
12111;DHT22;6119;52.372;8.990;2022-09-09T04:49:51;16.70;99.90
12111;DHT22;6119;52.372;8.990;2022-09-09T04:52:39;16.60;99.90
12111;DHT22;6119;52.372;8.990;2022-09-09T04:55:26;16.70;99.90
12111;DHT22;6119;52.372;8.990;2022-09-09T04:58:12;16.60;99.90
12111;DHT22;6119;52.372;8.990;2022-09-09T05:01:06;16.60;99.90
12111;DHT22;6119;52.372;8.990;2022-09-09T05:03:53;16.60;99.90
12111;DHT22;6119;52.372;8.990;2022-09-09T05:06:41;16.60;99.90
12111;DHT22;6119;52.372;8.990;2022-09-09T05:09:28;16.60;99.90
12111;DHT22;6119;52.372;8.990;2022-09-09T05:12:15;16.60;99.90
12111;DHT22;6119;52.372;8.990;2022-09-09T05:15:03;16.70;99.90
12111;DHT22;6119;52.372;8.990;2022-09-09T05:17:50;16.60;99.90
12111;DHT22;6119;52.372;8.990;2022-09-09T05:20:37;16.60;99.90
12111;DHT22;6119;52.372;8.990;2022-09-09T05:23:25;16.60;99.90
12111;DHT22;6119;52.372;8.990;2022-09-09T05:26:12;16.60;99.90
12111;DHT22;6119;52.372;8.990;2022-09-09T05:29:02;16.70;99.90
12111;DHT22;6119;52.372;8.990;2022-09-09T05:31:49;16.60;99.90
12111;DHT22;6119;52.372;8.990;2022-09-09T05:34:35;16.70;99.90
12111;DHT22;6119;52.372;8.990;2022-09-09T05:37:22;16.70;99.90
12111;DHT22;6119;52.372;8.990;2022-09-09T05:40:11;16.70;99.90
12111;DHT22;6119;52.372;8.990;2022-09-09T05:43:00;16.70;99.90
12111;DHT22;6119;52.372;8.990;2022-09-09T05:45:47;16.80;99.90
12111;DHT22;6119;52.372;8.990;2022-09-09T05:48:35;16.80;99.90
12111;DHT22;6119;52.372;8.990;2022-09-09T05:51:24;16.80;99.90
12111;DHT22;6119;52.372;8.990;2022-09-09T05:54:11;16.80;99.90
12111;DHT22;6119;52.372;8.990;2022-09-09T05:57:01;16.80;99.90
12111;DHT22;6119;52.372;8.990;2022-09-09T05:59:48;16.80;99.90
12111;DHT22;6119;52.372;8.990;2022-09-09T06:02:35;16.80;99.90
12111;DHT22;6119;52.372;8.990;2022-09-09T06:05:24;16.90;99.90
12111;DHT22;6119;52.372;8.990;2022-09-09T06:08:12;16.90;99.90
12111;DHT22;6119;52.372;8.990;2022-09-09T06:11:02;16.90;99.90
12111;DHT22;6119;52.372;8.990;2022-09-09T06:13:50;16.90;99.90
12111;DHT22;6119;52.372;8.990;2022-09-09T06:16:38;16.90;99.90
12111;DHT22;6119;52.372;8.990;2022-09-09T06:19:27;16.90;99.90
12111;DHT22;6119;52.372;8.990;2022-09-09T06:22:16;17.00;99.90
12111;DHT22;6119;52.372;8.990;2022-09-09T06:25:03;17.00;99.90
12111;DHT22;6119;52.372;8.990;2022-09-09T06:27:49;17.00;99.90
12111;DHT22;6119;52.372;8.990;2022-09-09T06:30:37;17.10;99.90
12111;DHT22;6119;52.372;8.990;2022-09-09T06:33:24;17.10;99.90
12111;DHT22;6119;52.372;8.990;2022-09-09T06:36:12;17.00;99.90
12111;DHT22;6119;52.372;8.990;2022-09-09T06:39:00;17.20;99.90
12111;DHT22;6119;52.372;8.990;2022-09-09T06:41:46;17.20;99.90
12111;DHT22;6119;52.372;8.990;2022-09-09T06:44:33;17.10;99.90
12111;DHT22;6119;52.372;8.990;2022-09-09T06:47:21;17.20;99.90
12111;DHT22;6119;52.372;8.990;2022-09-09T06:50:08;17.10;99.90
12111;DHT22;6119;52.372;8.990;2022-09-09T06:52:56;17.20;99.90
12111;DHT22;6119;52.372;8.990;2022-09-09T06:55:42;17.20;99.90
12111;DHT22;6119;52.372;8.990;2022-09-09T06:58:30;17.20;99.90
12111;DHT22;6119;52.372;8.990;2022-09-09T07:01:19;17.30;99.90
12111;DHT22;6119;52.372;8.990;2022-09-09T07:04:07;17.30;99.90
12111;DHT22;6119;52.372;8.990;2022-09-09T07:06:56;17.30;99.90
12111;DHT22;6119;52.372;8.990;2022-09-09T07:09:42;17.50;99.90
12111;DHT22;6119;52.372;8.990;2022-09-09T07:12:30;17.60;99.90
12111;DHT22;6119;52.372;8.990;2022-09-09T07:15:16;17.70;99.90
12111;DHT22;6119;52.372;8.990;2022-09-09T07:18:04;17.80;99.90
12111;DHT22;6119;52.372;8.990;2022-09-09T07:20:55;18.00;99.90
12111;DHT22;6119;52.372;8.990;2022-09-09T07:23:42;18.10;99.90
12111;DHT22;6119;52.372;8.990;2022-09-09T07:26:30;18.30;99.90
12111;DHT22;6119;52.372;8.990;2022-09-09T07:29:17;18.30;99.90
12111;DHT22;6119;52.372;8.990;2022-09-09T07:32:05;18.40;99.90
12111;DHT22;6119;52.372;8.990;2022-09-09T07:34:52;18.40;99.90
12111;DHT22;6119;52.372;8.990;2022-09-09T07:37:39;18.40;99.90
12111;DHT22;6119;52.372;8.990;2022-09-09T07:40:26;18.50;99.90
12111;DHT22;6119;52.372;8.990;2022-09-09T07:43:13;18.60;99.90
12111;DHT22;6119;52.372;8.990;2022-09-09T07:46:03;18.50;99.90
12111;DHT22;6119;52.372;8.990;2022-09-09T07:48:53;18.60;99.90
12111;DHT22;6119;52.372;8.990;2022-09-09T07:51:42;18.70;99.90
12111;DHT22;6119;52.372;8.990;2022-09-09T07:54:30;18.70;99.90
12111;DHT22;6119;52.372;8.990;2022-09-09T07:57:17;18.80;99.90
12111;DHT22;6119;52.372;8.990;2022-09-09T08:00:04;18.80;99.90
12111;DHT22;6119;52.372;8.990;2022-09-09T08:02:51;18.80;99.90
12111;DHT22;6119;52.372;8.990;2022-09-09T08:05:39;18.80;99.90
12111;DHT22;6119;52.372;8.990;2022-09-09T08:08:26;18.90;99.90
12111;DHT22;6119;52.372;8.990;2022-09-09T08:11:15;18.90;99.90
12111;DHT22;6119;52.372;8.990;2022-09-09T08:14:01;19.00;99.90
12111;DHT22;6119;52.372;8.990;2022-09-09T08:16:49;19.00;99.90
12111;DHT22;6119;52.372;8.990;2022-09-09T08:19:39;19.00;99.90
12111;DHT22;6119;52.372;8.990;2022-09-09T08:22:25;19.10;99.90
12111;DHT22;6119;52.372;8.990;2022-09-09T08:25:13;19.10;99.90
12111;DHT22;6119;52.372;8.990;2022-09-09T08:28:01;19.10;99.90
12111;DHT22;6119;52.372;8.990;2022-09-09T08:30:48;19.30;99.90
12111;DHT22;6119;52.372;8.990;2022-09-09T08:33:35;19.50;99.90
12111;DHT22;6119;52.372;8.990;2022-09-09T08:36:25;19.30;99.90
12111;DHT22;6119;52.372;8.990;2022-09-09T08:39:13;19.40;99.90
12111;DHT22;6119;52.372;8.990;2022-09-09T08:42:14;19.30;99.90
12111;DHT22;6119;52.372;8.990;2022-09-09T08:45:25;19.50;99.90
12111;DHT22;6119;52.372;8.990;2022-09-09T08:48:32;19.60;99.90
12111;DHT22;6119;52.372;8.990;2022-09-09T08:51:25;19.60;99.90
12111;DHT22;6119;52.372;8.990;2022-09-09T08:54:12;19.60;99.90
12111;DHT22;6119;52.372;8.990;2022-09-09T08:56:59;19.70;99.90
12111;DHT22;6119;52.372;8.990;2022-09-09T08:59:45;19.60;99.90
12111;DHT22;6119;52.372;8.990;2022-09-09T09:02:39;19.70;99.90
12111;DHT22;6119;52.372;8.990;2022-09-09T09:05:35;19.80;99.90
12111;DHT22;6119;52.372;8.990;2022-09-09T09:08:28;19.90;99.90
12111;DHT22;6119;52.372;8.990;2022-09-09T09:11:17;20.00;99.90
12111;DHT22;6119;52.372;8.990;2022-09-09T09:14:09;19.90;99.90
12111;DHT22;6119;52.372;8.990;2022-09-09T09:16:58;20.10;99.90
12111;DHT22;6119;52.372;8.990;2022-09-09T09:19:48;20.10;99.90
12111;DHT22;6119;52.372;8.990;2022-09-09T09:22:43;20.10;99.90
12111;DHT22;6119;52.372;8.990;2022-09-09T09:25:33;20.10;99.90
12111;DHT22;6119;52.372;8.990;2022-09-09T09:28:24;20.00;99.90
12111;DHT22;6119;52.372;8.990;2022-09-09T09:31:12;20.20;99.90
12111;DHT22;6119;52.372;8.990;2022-09-09T09:33:59;20.40;99.90
12111;DHT22;6119;52.372;8.990;2022-09-09T09:36:54;20.40;99.90
12111;DHT22;6119;52.372;8.990;2022-09-09T09:39:41;20.30;99.90
12111;DHT22;6119;52.372;8.990;2022-09-09T09:42:51;20.50;99.90
12111;DHT22;6119;52.372;8.990;2022-09-09T09:45:42;20.50;99.90
12111;DHT22;6119;52.372;8.990;2022-09-09T09:48:45;20.70;99.90
12111;DHT22;6119;52.372;8.990;2022-09-09T09:51:42;20.80;99.90
12111;DHT22;6119;52.372;8.990;2022-09-09T09:54:31;20.90;99.90
12111;DHT22;6119;52.372;8.990;2022-09-09T09:57:23;20.80;99.90
12111;DHT22;6119;52.372;8.990;2022-09-09T10:00:14;20.70;99.90
12111;DHT22;6119;52.372;8.990;2022-09-09T10:03:17;20.60;99.90
12111;DHT22;6119;52.372;8.990;2022-09-09T10:06:06;20.50;99.90
12111;DHT22;6119;52.372;8.990;2022-09-09T10:08:53;20.40;99.90
12111;DHT22;6119;52.372;8.990;2022-09-09T10:11:46;20.40;99.90
12111;DHT22;6119;52.372;8.990;2022-09-09T10:14:41;20.30;99.90
12111;DHT22;6119;52.372;8.990;2022-09-09T10:17:35;20.30;99.90
12111;DHT22;6119;52.372;8.990;2022-09-09T10:20:32;20.20;99.90
12111;DHT22;6119;52.372;8.990;2022-09-09T10:23:32;20.20;99.90
12111;DHT22;6119;52.372;8.990;2022-09-09T10:26:34;20.20;99.90
12111;DHT22;6119;52.372;8.990;2022-09-09T10:29:38;20.20;99.90
12111;DHT22;6119;52.372;8.990;2022-09-09T10:32:41;20.30;99.90
12111;DHT22;6119;52.372;8.990;2022-09-09T10:35:34;20.40;99.90
12111;DHT22;6119;52.372;8.990;2022-09-09T10:38:25;20.60;99.90
12111;DHT22;6119;52.372;8.990;2022-09-09T10:41:19;20.80;99.90
12111;DHT22;6119;52.372;8.990;2022-09-09T10:44:21;20.80;99.90
12111;DHT22;6119;52.372;8.990;2022-09-09T10:47:23;20.30;99.90
12111;DHT22;6119;52.372;8.990;2022-09-09T10:53:55;19.80;99.90
12111;DHT22;6119;52.372;8.990;2022-09-09T10:56:45;20.00;99.90
12111;DHT22;6119;52.372;8.990;2022-09-09T10:59:40;19.90;99.90
12111;DHT22;6119;52.372;8.990;2022-09-09T11:02:30;20.00;99.90
12111;DHT22;6119;52.372;8.990;2022-09-09T11:05:19;19.90;99.90
12111;DHT22;6119;52.372;8.990;2022-09-09T11:08:10;19.80;99.90
12111;DHT22;6119;52.372;8.990;2022-09-09T11:11:02;19.80;99.90
12111;DHT22;6119;52.372;8.990;2022-09-09T11:13:54;19.80;99.90
12111;DHT22;6119;52.372;8.990;2022-09-09T11:16:45;19.90;99.90
12111;DHT22;6119;52.372;8.990;2022-09-09T11:19:39;19.90;99.90
12111;DHT22;6119;52.372;8.990;2022-09-09T11:22:29;19.90;99.90
12111;DHT22;6119;52.372;8.990;2022-09-09T11:25:21;20.00;99.90
12111;DHT22;6119;52.372;8.990;2022-09-09T11:28:23;20.10;99.90
12111;DHT22;6119;52.372;8.990;2022-09-09T11:31:21;20.20;99.90
12111;DHT22;6119;52.372;8.990;2022-09-09T11:34:38;20.30;99.90
12111;DHT22;6119;52.372;8.990;2022-09-09T11:37:50;20.50;99.90
12111;DHT22;6119;52.372;8.990;2022-09-09T11:40:38;20.80;99.90
12111;DHT22;6119;52.372;8.990;2022-09-09T11:43:29;21.10;99.90
12111;DHT22;6119;52.372;8.990;2022-09-09T11:46:20;21.40;99.90
12111;DHT22;6119;52.372;8.990;2022-09-09T11:49:26;21.80;99.90
12111;DHT22;6119;52.372;8.990;2022-09-09T11:52:21;21.90;99.90
12111;DHT22;6119;52.372;8.990;2022-09-09T11:55:10;22.20;99.90
12111;DHT22;6119;52.372;8.990;2022-09-09T11:57:58;22.60;99.90
12111;DHT22;6119;52.372;8.990;2022-09-09T12:00:47;22.40;99.90
12111;DHT22;6119;52.372;8.990;2022-09-09T12:03:40;22.70;99.90
12111;DHT22;6119;52.372;8.990;2022-09-09T12:06:30;22.80;99.90
12111;DHT22;6119;52.372;8.990;2022-09-09T12:09:26;23.20;99.90
12111;DHT22;6119;52.372;8.990;2022-09-09T12:12:27;23.00;99.90
12111;DHT22;6119;52.372;8.990;2022-09-09T12:15:24;22.80;99.90
12111;DHT22;6119;52.372;8.990;2022-09-09T12:18:16;22.60;99.90
12111;DHT22;6119;52.372;8.990;2022-09-09T12:21:14;22.80;99.90
12111;DHT22;6119;52.372;8.990;2022-09-09T12:24:07;22.70;99.90
12111;DHT22;6119;52.372;8.990;2022-09-09T12:26:59;22.80;99.90
12111;DHT22;6119;52.372;8.990;2022-09-09T12:29:54;22.90;99.90
12111;DHT22;6119;52.372;8.990;2022-09-09T12:32:42;23.00;99.90
12111;DHT22;6119;52.372;8.990;2022-09-09T12:35:30;22.70;99.90
12111;DHT22;6119;52.372;8.990;2022-09-09T12:38:22;22.70;99.90
12111;DHT22;6119;52.372;8.990;2022-09-09T12:41:23;23.20;99.90
12111;DHT22;6119;52.372;8.990;2022-09-09T12:44:12;23.40;99.90
12111;DHT22;6119;52.372;8.990;2022-09-09T12:47:00;23.50;99.90
12111;DHT22;6119;52.372;8.990;2022-09-09T12:49:47;23.30;99.90
12111;DHT22;6119;52.372;8.990;2022-09-09T12:52:35;23.10;99.90
12111;DHT22;6119;52.372;8.990;2022-09-09T12:55:28;23.10;99.90
12111;DHT22;6119;52.372;8.990;2022-09-09T12:58:17;23.10;99.90
12111;DHT22;6119;52.372;8.990;2022-09-09T13:01:06;23.00;99.90
12111;DHT22;6119;52.372;8.990;2022-09-09T13:03:54;22.90;99.90
12111;DHT22;6119;52.372;8.990;2022-09-09T13:06:41;22.90;99.90
12111;DHT22;6119;52.372;8.990;2022-09-09T13:09:27;22.70;99.90
12111;DHT22;6119;52.372;8.990;2022-09-09T13:12:16;22.70;99.90
12111;DHT22;6119;52.372;8.990;2022-09-09T13:15:13;22.70;99.90
12111;DHT22;6119;52.372;8.990;2022-09-09T13:18:06;22.90;99.90
12111;DHT22;6119;52.372;8.990;2022-09-09T13:20:58;23.00;99.90
12111;DHT22;6119;52.372;8.990;2022-09-09T13:23:49;23.10;99.90
12111;DHT22;6119;52.372;8.990;2022-09-09T13:26:37;23.50;99.90
12111;DHT22;6119;52.372;8.990;2022-09-09T13:29:24;23.40;99.90
12111;DHT22;6119;52.372;8.990;2022-09-09T13:32:17;23.20;99.90
12111;DHT22;6119;52.372;8.990;2022-09-09T13:35:23;23.50;99.90
12111;DHT22;6119;52.372;8.990;2022-09-09T13:38:10;23.90;99.90
12111;DHT22;6119;52.372;8.990;2022-09-09T13:41:00;24.00;99.90
12111;DHT22;6119;52.372;8.990;2022-09-09T13:43:49;24.10;99.90
12111;DHT22;6119;52.372;8.990;2022-09-09T13:46:39;24.00;99.90
12111;DHT22;6119;52.372;8.990;2022-09-09T13:49:28;23.90;99.90
12111;DHT22;6119;52.372;8.990;2022-09-09T13:52:18;23.70;99.90
12111;DHT22;6119;52.372;8.990;2022-09-09T13:55:05;23.30;99.90
12111;DHT22;6119;52.372;8.990;2022-09-09T13:57:54;23.10;99.90
12111;DHT22;6119;52.372;8.990;2022-09-09T14:00:41;22.80;99.90
12111;DHT22;6119;52.372;8.990;2022-09-09T14:03:28;22.70;99.90
12111;DHT22;6119;52.372;8.990;2022-09-09T14:06:15;22.60;99.90
12111;DHT22;6119;52.372;8.990;2022-09-09T14:09:04;22.60;99.90
12111;DHT22;6119;52.372;8.990;2022-09-09T14:11:51;22.40;99.90
12111;DHT22;6119;52.372;8.990;2022-09-09T14:14:37;22.40;99.90
12111;DHT22;6119;52.372;8.990;2022-09-09T14:17:23;22.30;99.90
12111;DHT22;6119;52.372;8.990;2022-09-09T14:20:10;22.30;99.90
12111;DHT22;6119;52.372;8.990;2022-09-09T14:23:00;22.40;99.90
12111;DHT22;6119;52.372;8.990;2022-09-09T14:25:49;22.40;99.90
12111;DHT22;6119;52.372;8.990;2022-09-09T14:28:36;22.30;99.90
12111;DHT22;6119;52.372;8.990;2022-09-09T14:31:39;22.40;99.90
12111;DHT22;6119;52.372;8.990;2022-09-09T14:34:25;22.30;99.90
12111;DHT22;6119;52.372;8.990;2022-09-09T14:37:12;22.10;99.90
12111;DHT22;6119;52.372;8.990;2022-09-09T14:39:58;21.70;99.90
12111;DHT22;6119;52.372;8.990;2022-09-09T14:42:46;21.80;99.90
12111;DHT22;6119;52.372;8.990;2022-09-09T14:45:33;21.90;99.90
12111;DHT22;6119;52.372;8.990;2022-09-09T14:48:22;22.20;99.90
12111;DHT22;6119;52.372;8.990;2022-09-09T14:51:10;22.10;99.90
12111;DHT22;6119;52.372;8.990;2022-09-09T14:53:59;22.40;99.90
12111;DHT22;6119;52.372;8.990;2022-09-09T14:56:47;22.80;99.90
12111;DHT22;6119;52.372;8.990;2022-09-09T14:59:34;23.00;99.90
12111;DHT22;6119;52.372;8.990;2022-09-09T15:02:21;23.20;99.90
12111;DHT22;6119;52.372;8.990;2022-09-09T15:05:09;23.00;99.90
12111;DHT22;6119;52.372;8.990;2022-09-09T15:07:55;23.00;99.90
12111;DHT22;6119;52.372;8.990;2022-09-09T15:10:43;23.00;99.90
12111;DHT22;6119;52.372;8.990;2022-09-09T15:13:32;23.40;99.90
12111;DHT22;6119;52.372;8.990;2022-09-09T15:16:21;23.50;99.90
12111;DHT22;6119;52.372;8.990;2022-09-09T15:19:07;23.30;99.90
12111;DHT22;6119;52.372;8.990;2022-09-09T15:21:54;23.00;99.90
12111;DHT22;6119;52.372;8.990;2022-09-09T15:24:41;23.00;99.90
12111;DHT22;6119;52.372;8.990;2022-09-09T15:27:27;23.00;99.90
12111;DHT22;6119;52.372;8.990;2022-09-09T15:30:16;23.20;99.90
12111;DHT22;6119;52.372;8.990;2022-09-09T15:33:08;23.10;99.90
12111;DHT22;6119;52.372;8.990;2022-09-09T15:35:57;22.90;99.90
12111;DHT22;6119;52.372;8.990;2022-09-09T15:38:43;22.80;99.90
12111;DHT22;6119;52.372;8.990;2022-09-09T15:41:30;22.60;99.90
12111;DHT22;6119;52.372;8.990;2022-09-09T15:44:18;22.50;99.90
12111;DHT22;6119;52.372;8.990;2022-09-09T15:47:05;22.40;99.90
12111;DHT22;6119;52.372;8.990;2022-09-09T15:49:53;22.30;99.90
12111;DHT22;6119;52.372;8.990;2022-09-09T15:52:39;22.20;99.90
12111;DHT22;6119;52.372;8.990;2022-09-09T15:55:26;22.10;99.90
12111;DHT22;6119;52.372;8.990;2022-09-09T15:58:12;21.90;99.90
12111;DHT22;6119;52.372;8.990;2022-09-09T16:01:02;21.90;99.90
12111;DHT22;6119;52.372;8.990;2022-09-09T16:03:49;21.80;99.90
12111;DHT22;6119;52.372;8.990;2022-09-09T16:06:38;21.60;99.90
12111;DHT22;6119;52.372;8.990;2022-09-09T16:09:25;21.40;99.90
12111;DHT22;6119;52.372;8.990;2022-09-09T16:12:12;21.40;99.90
12111;DHT22;6119;52.372;8.990;2022-09-09T16:14:59;21.40;99.90
12111;DHT22;6119;52.372;8.990;2022-09-09T16:17:46;21.40;99.90
12111;DHT22;6119;52.372;8.990;2022-09-09T16:20:33;21.40;99.90
12111;DHT22;6119;52.372;8.990;2022-09-09T16:23:22;21.50;99.90
12111;DHT22;6119;52.372;8.990;2022-09-09T16:26:11;21.50;99.90
12111;DHT22;6119;52.372;8.990;2022-09-09T16:28:58;21.50;99.90
12111;DHT22;6119;52.372;8.990;2022-09-09T16:31:45;21.70;99.90
12111;DHT22;6119;52.372;8.990;2022-09-09T16:34:33;22.30;99.90
12111;DHT22;6119;52.372;8.990;2022-09-09T16:37:19;22.30;99.90
12111;DHT22;6119;52.372;8.990;2022-09-09T16:40:08;22.10;99.90
12111;DHT22;6119;52.372;8.990;2022-09-09T16:42:55;22.00;99.90
12111;DHT22;6119;52.372;8.990;2022-09-09T16:45:42;22.10;99.90
12111;DHT22;6119;52.372;8.990;2022-09-09T16:48:31;21.90;99.90
12111;DHT22;6119;52.372;8.990;2022-09-09T16:51:20;22.00;99.90
12111;DHT22;6119;52.372;8.990;2022-09-09T16:54:10;21.90;99.90
12111;DHT22;6119;52.372;8.990;2022-09-09T16:56:59;22.00;99.90
12111;DHT22;6119;52.372;8.990;2022-09-09T16:59:45;21.90;99.90
12111;DHT22;6119;52.372;8.990;2022-09-09T17:02:33;21.70;99.90
12111;DHT22;6119;52.372;8.990;2022-09-09T17:05:19;21.60;99.90
12111;DHT22;6119;52.372;8.990;2022-09-09T17:08:05;21.60;99.90
12111;DHT22;6119;52.372;8.990;2022-09-09T17:10:52;21.50;99.90
12111;DHT22;6119;52.372;8.990;2022-09-09T17:13:40;21.40;99.90
12111;DHT22;6119;52.372;8.990;2022-09-09T17:16:29;21.30;99.90
12111;DHT22;6119;52.372;8.990;2022-09-09T17:19:17;21.30;99.90
12111;DHT22;6119;52.372;8.990;2022-09-09T17:22:03;21.30;99.90
12111;DHT22;6119;52.372;8.990;2022-09-09T17:25:01;21.20;99.90
12111;DHT22;6119;52.372;8.990;2022-09-09T17:27:48;21.10;99.90
12111;DHT22;6119;52.372;8.990;2022-09-09T17:30:37;21.10;99.90
12111;DHT22;6119;52.372;8.990;2022-09-09T17:33:24;21.00;99.90
12111;DHT22;6119;52.372;8.990;2022-09-09T17:36:13;21.00;99.90
12111;DHT22;6119;52.372;8.990;2022-09-09T17:39:01;20.80;99.90
12111;DHT22;6119;52.372;8.990;2022-09-09T17:41:48;20.90;99.90
12111;DHT22;6119;52.372;8.990;2022-09-09T17:44:35;20.90;99.90
12111;DHT22;6119;52.372;8.990;2022-09-09T17:47:22;20.70;99.90
12111;DHT22;6119;52.372;8.990;2022-09-09T17:50:10;20.20;99.90
12111;DHT22;6119;52.372;8.990;2022-09-09T17:52:57;19.70;99.90
12111;DHT22;6119;52.372;8.990;2022-09-09T17:55:44;19.40;99.90
12111;DHT22;6119;52.372;8.990;2022-09-09T17:58:37;20.30;99.90
12111;DHT22;6119;52.372;8.990;2022-09-09T18:01:25;19.20;99.90
12111;DHT22;6119;52.372;8.990;2022-09-09T18:04:15;19.20;99.90
12111;DHT22;6119;52.372;8.990;2022-09-09T18:07:02;19.20;99.90
12111;DHT22;6119;52.372;8.990;2022-09-09T18:09:48;19.20;99.90
12111;DHT22;6119;52.372;8.990;2022-09-09T18:12:35;19.30;99.90